CXA1497 ZSAM-ZUGY
Flight info
| Callsign | CXA1497 |
|---|---|
| Flight time | 2h 13m |
| Altitude | 36100 |
| Route | NUSPA W597 IKATA A470 BEBEM R200 GUBLO W22 IDUMA A461 SHL W22 TEPID W24 OSNOV G586 QP B330 ELKAL |
| Aircraft | B738/M-SDE2E3FGILRWXY/LB2 |
Departure
| Time | 2026-05-06 12:48 |
|---|---|
| Airport | Xiamen Gaoqi International Airport (ZSAM) |
Arrival
| Time | 2026-05-06 15:01 |
|---|---|
| Airport | Guiyang Longdongbao International Airport (ZUGY) |
| Time | Latitude | Longitude | Altitude | Speed | Heading |
|---|---|---|---|---|---|
| 2026-05-06 12:19 | 24.53597 | 118.12310 | 67 ft | 0 kts | 142° |
| 2026-05-06 12:38 | 24.53603 | 118.12305 | 67 ft | 2 kts | 142° |
| 2026-05-06 12:38 | 24.53616 | 118.12294 | 67 ft | 2 kts | 146° |
| 2026-05-06 12:39 | 24.53630 | 118.12285 | 67 ft | 2 kts | 151° |
| 2026-05-06 12:39 | 24.53644 | 118.12277 | 67 ft | 2 kts | 161° |
| 2026-05-06 12:39 | 24.53659 | 118.12273 | 67 ft | 2 kts | 180° |
| 2026-05-06 12:39 | 24.53672 | 118.12275 | 67 ft | 2 kts | 216° |
| 2026-05-06 12:40 | 24.53682 | 118.12286 | 67 ft | 2 kts | 231° |
| 2026-05-06 12:40 | 24.53692 | 118.12299 | 67 ft | 2 kts | 231° |
| 2026-05-06 12:40 | 24.53694 | 118.12302 | 67 ft | 0 kts | 231° |
| 2026-05-06 12:42 | 24.53691 | 118.12297 | 67 ft | 5 kts | 231° |
| 2026-05-06 12:42 | 24.53647 | 118.12237 | 67 ft | 11 kts | 231° |
| 2026-05-06 12:42 | 24.53606 | 118.12181 | 67 ft | 8 kts | 231° |
| 2026-05-06 12:42 | 24.53572 | 118.12136 | 67 ft | 7 kts | 231° |
| 2026-05-06 12:43 | 24.53544 | 118.12095 | 67 ft | 6 kts | 250° |
| 2026-05-06 12:43 | 24.53559 | 118.12052 | 67 ft | 7 kts | 315° |
| 2026-05-06 12:43 | 24.53600 | 118.12016 | 67 ft | 9 kts | 323° |
| 2026-05-06 12:43 | 24.53629 | 118.11960 | 67 ft | 10 kts | 248° |
| 2026-05-06 12:44 | 24.53584 | 118.11891 | 67 ft | 12 kts | 232° |
| 2026-05-06 12:44 | 24.53528 | 118.11812 | 67 ft | 14 kts | 232° |
| 2026-05-06 12:44 | 24.53468 | 118.11729 | 67 ft | 12 kts | 232° |
| 2026-05-06 12:44 | 24.53420 | 118.11659 | 67 ft | 12 kts | 237° |
| 2026-05-06 12:45 | 24.53398 | 118.11596 | 67 ft | 8 kts | 270° |
| 2026-05-06 12:45 | 24.53412 | 118.11535 | 67 ft | 8 kts | 286° |
| 2026-05-06 12:45 | 24.53484 | 118.11470 | 67 ft | 7 kts | 26° |
| 2026-05-06 12:46 | 24.53515 | 118.11503 | 67 ft | 4 kts | 51° |
| 2026-05-06 12:46 | 24.53520 | 118.11510 | 67 ft | 0 kts | 52° |
| 2026-05-06 12:46 | 24.53529 | 118.11523 | 67 ft | 9 kts | 52° |
| 2026-05-06 12:46 | 24.53671 | 118.11721 | 67 ft | 60 kts | 52° |
| 2026-05-06 12:47 | 24.54036 | 118.12232 | 67 ft | 107 kts | 52° |
| 2026-05-06 12:47 | 24.54576 | 118.12988 | 67 ft | 143 kts | 51° |
| 2026-05-06 12:47 | 24.55241 | 118.13911 | 206 ft | 160 kts | 52° |
| 2026-05-06 12:47 | 24.55943 | 118.14883 | 579 ft | 164 kts | 52° |
| 2026-05-06 12:48 | 24.56654 | 118.15860 | 1021 ft | 164 kts | 52° |
| 2026-05-06 12:48 | 24.57373 | 118.16843 | 1402 ft | 168 kts | 52° |
| 2026-05-06 12:48 | 24.58103 | 118.17879 | 1763 ft | 173 kts | 53° |
| 2026-05-06 12:48 | 24.58835 | 118.18918 | 2318 ft | 172 kts | 53° |
| 2026-05-06 12:49 | 24.59558 | 118.19942 | 2839 ft | 172 kts | 52° |
| 2026-05-06 12:49 | 24.60296 | 118.20987 | 3306 ft | 177 kts | 52° |
| 2026-05-06 12:49 | 24.61087 | 118.22112 | 3559 ft | 195 kts | 53° |
| 2026-05-06 12:49 | 24.61618 | 118.23535 | 3791 ft | 211 kts | 83° |
| 2026-05-06 12:50 | 24.61356 | 118.25121 | 4240 ft | 215 kts | 115° |
| 2026-05-06 12:50 | 24.60345 | 118.26307 | 4731 ft | 217 kts | 150° |
| 2026-05-06 12:50 | 24.58899 | 118.26744 | 5259 ft | 218 kts | 177° |
| 2026-05-06 12:50 | 24.57437 | 118.26358 | 5790 ft | 219 kts | 206° |
| 2026-05-06 12:51 | 24.56187 | 118.25396 | 6380 ft | 219 kts | 217° |
| 2026-05-06 12:51 | 24.55007 | 118.24372 | 6998 ft | 219 kts | 217° |
| 2026-05-06 12:51 | 24.53791 | 118.23353 | 7597 ft | 221 kts | 217° |
| 2026-05-06 12:51 | 24.52567 | 118.22333 | 8247 ft | 220 kts | 217° |
| 2026-05-06 12:52 | 24.51371 | 118.21247 | 8720 ft | 228 kts | 224° |
| 2026-05-06 12:52 | 24.50261 | 118.19897 | 8941 ft | 248 kts | 231° |
| 2026-05-06 12:52 | 24.49160 | 118.18354 | 9253 ft | 264 kts | 232° |
| 2026-05-06 12:52 | 24.48025 | 118.16717 | 9737 ft | 273 kts | 233° |
| 2026-05-06 12:53 | 24.46863 | 118.15051 | 10379 ft | 277 kts | 233° |
| 2026-05-06 12:53 | 24.45688 | 118.13375 | 10919 ft | 286 kts | 233° |
| 2026-05-06 12:53 | 24.44436 | 118.11598 | 11237 ft | 303 kts | 233° |
| 2026-05-06 12:53 | 24.43108 | 118.09721 | 11494 ft | 320 kts | 233° |
| 2026-05-06 12:54 | 24.41704 | 118.07740 | 11719 ft | 337 kts | 233° |
| 2026-05-06 12:54 | 24.40229 | 118.05662 | 11944 ft | 353 kts | 233° |
| 2026-05-06 12:54 | 24.38696 | 118.03506 | 12298 ft | 363 kts | 233° |
| 2026-05-06 12:54 | 24.37134 | 118.01312 | 12837 ft | 366 kts | 232° |
| 2026-05-06 12:55 | 24.35560 | 117.99099 | 13401 ft | 370 kts | 233° |
| 2026-05-06 12:55 | 24.33993 | 117.96896 | 13954 ft | 373 kts | 232° |
| 2026-05-06 12:55 | 24.32392 | 117.94648 | 14504 ft | 376 kts | 232° |
| 2026-05-06 12:55 | 24.30774 | 117.92377 | 15060 ft | 379 kts | 232° |
| 2026-05-06 12:56 | 24.29142 | 117.90090 | 15599 ft | 382 kts | 232° |
| 2026-05-06 12:56 | 24.27499 | 117.87790 | 16159 ft | 384 kts | 232° |
| 2026-05-06 12:56 | 24.25845 | 117.85474 | 16666 ft | 388 kts | 232° |
| 2026-05-06 12:56 | 24.24113 | 117.83198 | 17158 ft | 391 kts | 228° |
| 2026-05-06 12:57 | 24.22218 | 117.81043 | 17638 ft | 394 kts | 225° |
| 2026-05-06 12:57 | 24.20272 | 117.78971 | 18108 ft | 397 kts | 224° |
| 2026-05-06 12:57 | 24.18266 | 117.76882 | 18572 ft | 399 kts | 224° |
| 2026-05-06 12:57 | 24.16259 | 117.74768 | 19048 ft | 401 kts | 224° |
| 2026-05-06 12:58 | 24.14247 | 117.72635 | 19514 ft | 403 kts | 224° |
| 2026-05-06 12:58 | 24.12232 | 117.70488 | 19942 ft | 405 kts | 224° |
| 2026-05-06 12:58 | 24.10210 | 117.68330 | 20371 ft | 408 kts | 224° |
| 2026-05-06 12:58 | 24.08176 | 117.66155 | 20800 ft | 409 kts | 224° |
| 2026-05-06 12:59 | 24.06134 | 117.63970 | 21203 ft | 411 kts | 224° |
| 2026-05-06 12:59 | 24.04091 | 117.61774 | 21586 ft | 413 kts | 224° |
| 2026-05-06 12:59 | 24.02041 | 117.59571 | 21972 ft | 415 kts | 224° |
| 2026-05-06 12:59 | 23.99970 | 117.57350 | 22327 ft | 417 kts | 224° |
| 2026-05-06 13:00 | 23.97920 | 117.55153 | 22676 ft | 419 kts | 224° |
| 2026-05-06 13:00 | 23.95832 | 117.52919 | 23024 ft | 421 kts | 224° |
| 2026-05-06 13:00 | 23.93737 | 117.50678 | 23368 ft | 423 kts | 224° |
| 2026-05-06 13:00 | 23.91627 | 117.48422 | 23685 ft | 425 kts | 224° |
| 2026-05-06 13:01 | 23.89514 | 117.46163 | 23983 ft | 427 kts | 224° |
| 2026-05-06 13:01 | 23.87384 | 117.43879 | 24274 ft | 429 kts | 226° |
| 2026-05-06 13:01 | 23.85480 | 117.41371 | 24562 ft | 431 kts | 235° |
| 2026-05-06 13:01 | 23.83971 | 117.38537 | 24849 ft | 433 kts | 244° |
| 2026-05-06 13:02 | 23.82802 | 117.35498 | 25107 ft | 435 kts | 249° |
| 2026-05-06 13:02 | 23.81814 | 117.32367 | 25403 ft | 436 kts | 252° |
| 2026-05-06 13:02 | 23.80920 | 117.29196 | 25686 ft | 438 kts | 253° |
| 2026-05-06 13:02 | 23.80037 | 117.26053 | 25940 ft | 440 kts | 253° |
| 2026-05-06 13:03 | 23.79133 | 117.22858 | 26194 ft | 441 kts | 253° |
| 2026-05-06 13:03 | 23.78220 | 117.19649 | 26464 ft | 443 kts | 253° |
| 2026-05-06 13:03 | 23.77164 | 117.16498 | 26715 ft | 444 kts | 246° |
| 2026-05-06 13:03 | 23.75688 | 117.13522 | 26934 ft | 448 kts | 238° |
| 2026-05-06 13:04 | 23.73830 | 117.10781 | 27151 ft | 451 kts | 232° |
| 2026-05-06 13:04 | 23.71755 | 117.08204 | 27398 ft | 453 kts | 229° |
| 2026-05-06 13:04 | 23.69593 | 117.05711 | 27619 ft | 454 kts | 228° |
| 2026-05-06 13:04 | 23.67388 | 117.03217 | 27832 ft | 456 kts | 228° |
| 2026-05-06 13:05 | 23.65191 | 117.00718 | 28027 ft | 458 kts | 228° |
| 2026-05-06 13:05 | 23.62980 | 116.98199 | 28230 ft | 460 kts | 229° |
| 2026-05-06 13:05 | 23.60799 | 116.95718 | 28444 ft | 461 kts | 229° |
| 2026-05-06 13:05 | 23.58576 | 116.93192 | 28629 ft | 462 kts | 229° |
| 2026-05-06 13:06 | 23.56344 | 116.90658 | 28844 ft | 463 kts | 229° |
| 2026-05-06 13:06 | 23.54116 | 116.88131 | 29156 ft | 462 kts | 229° |
| 2026-05-06 13:06 | 23.51892 | 116.85609 | 29434 ft | 462 kts | 229° |
| 2026-05-06 13:06 | 23.49666 | 116.83087 | 29708 ft | 461 kts | 229° |
| 2026-05-06 13:07 | 23.47448 | 116.80574 | 30008 ft | 460 kts | 229° |
| 2026-05-06 13:07 | 23.45222 | 116.78068 | 30311 ft | 460 kts | 227° |
| 2026-05-06 13:07 | 23.42846 | 116.75732 | 30635 ft | 461 kts | 223° |
| 2026-05-06 13:07 | 23.40332 | 116.73572 | 30913 ft | 461 kts | 220° |
| 2026-05-06 13:08 | 23.37812 | 116.71491 | 31084 ft | 461 kts | 220° |
| 2026-05-06 13:08 | 23.35259 | 116.69382 | 31309 ft | 460 kts | 220° |
| 2026-05-06 13:08 | 23.32708 | 116.67273 | 31514 ft | 460 kts | 220° |
| 2026-05-06 13:08 | 23.30165 | 116.65169 | 31742 ft | 459 kts | 220° |
| 2026-05-06 13:09 | 23.27626 | 116.63066 | 31971 ft | 459 kts | 220° |
| 2026-05-06 13:09 | 23.25088 | 116.60964 | 32159 ft | 459 kts | 220° |
| 2026-05-06 13:09 | 23.22549 | 116.58862 | 32368 ft | 458 kts | 221° |
| 2026-05-06 13:09 | 23.20017 | 116.56761 | 32577 ft | 458 kts | 221° |
| 2026-05-06 13:10 | 23.17493 | 116.54657 | 32829 ft | 456 kts | 221° |
| 2026-05-06 13:10 | 23.14974 | 116.52565 | 33035 ft | 456 kts | 221° |
| 2026-05-06 13:10 | 23.12450 | 116.50472 | 33231 ft | 456 kts | 221° |
| 2026-05-06 13:10 | 23.09929 | 116.48385 | 33464 ft | 455 kts | 221° |
| 2026-05-06 13:11 | 23.07408 | 116.46300 | 33693 ft | 455 kts | 221° |
| 2026-05-06 13:11 | 23.04928 | 116.44252 | 33888 ft | 455 kts | 221° |
| 2026-05-06 13:11 | 23.02411 | 116.42173 | 34109 ft | 454 kts | 221° |
| 2026-05-06 13:11 | 22.99898 | 116.40099 | 34308 ft | 454 kts | 221° |
| 2026-05-06 13:12 | 22.97603 | 116.37788 | 34445 ft | 448 kts | 234° |
| 2026-05-06 13:12 | 22.95977 | 116.34948 | 34682 ft | 440 kts | 249° |
| 2026-05-06 13:12 | 22.95075 | 116.31798 | 34882 ft | 436 kts | 260° |
| 2026-05-06 13:12 | 22.94515 | 116.28569 | 35068 ft | 436 kts | 261° |
| 2026-05-06 13:13 | 22.93980 | 116.25334 | 35268 ft | 435 kts | 263° |
| 2026-05-06 13:13 | 22.93581 | 116.22084 | 35478 ft | 434 kts | 265° |
| 2026-05-06 13:13 | 22.93243 | 116.18830 | 35664 ft | 434 kts | 265° |
| 2026-05-06 13:13 | 22.92915 | 116.15622 | 35907 ft | 432 kts | 265° |
| 2026-05-06 13:14 | 22.92581 | 116.12382 | 36045 ft | 434 kts | 265° |
| 2026-05-06 13:14 | 22.91906 | 116.05871 | 36056 ft | 434 kts | 265° |
| 2026-05-06 13:15 | 22.91233 | 115.99384 | 36057 ft | 432 kts | 265° |
| 2026-05-06 13:15 | 22.90553 | 115.92901 | 36070 ft | 433 kts | 265° |
| 2026-05-06 13:16 | 22.89879 | 115.86409 | 36082 ft | 433 kts | 266° |
| 2026-05-06 13:16 | 22.89230 | 115.79971 | 36084 ft | 433 kts | 265° |
| 2026-05-06 13:17 | 22.88573 | 115.73478 | 36083 ft | 433 kts | 265° |
| 2026-05-06 13:17 | 22.87913 | 115.66996 | 36082 ft | 433 kts | 265° |
| 2026-05-06 13:18 | 22.87254 | 115.60554 | 36080 ft | 433 kts | 265° |
| 2026-05-06 13:18 | 22.86587 | 115.54061 | 36079 ft | 433 kts | 265° |
| 2026-05-06 13:19 | 22.85931 | 115.47576 | 36078 ft | 433 kts | 266° |
| 2026-05-06 13:19 | 22.85276 | 115.41087 | 36076 ft | 433 kts | 265° |
| 2026-05-06 13:20 | 22.84613 | 115.34599 | 36075 ft | 433 kts | 265° |
| 2026-05-06 13:20 | 22.83950 | 115.28159 | 36074 ft | 433 kts | 265° |
| 2026-05-06 13:21 | 22.83279 | 115.21675 | 36075 ft | 433 kts | 265° |
| 2026-05-06 13:21 | 22.82604 | 115.15188 | 36072 ft | 433 kts | 265° |
| 2026-05-06 13:22 | 22.81930 | 115.08701 | 36071 ft | 433 kts | 265° |
| 2026-05-06 13:22 | 22.81264 | 115.02261 | 36070 ft | 433 kts | 265° |
| 2026-05-06 13:23 | 22.80581 | 114.95777 | 36070 ft | 433 kts | 265° |
| 2026-05-06 13:23 | 22.79890 | 114.89290 | 36069 ft | 433 kts | 265° |
| 2026-05-06 13:24 | 22.79197 | 114.82806 | 36070 ft | 433 kts | 265° |
| 2026-05-06 13:24 | 22.78502 | 114.76323 | 36067 ft | 433 kts | 265° |
| 2026-05-06 13:25 | 22.77845 | 114.69882 | 36067 ft | 433 kts | 265° |
| 2026-05-06 13:25 | 22.77184 | 114.63393 | 36066 ft | 433 kts | 265° |
| 2026-05-06 13:26 | 22.76518 | 114.56903 | 36065 ft | 434 kts | 265° |
| 2026-05-06 13:26 | 22.75852 | 114.50416 | 36066 ft | 433 kts | 265° |
| 2026-05-06 13:27 | 22.75190 | 114.43966 | 36065 ft | 434 kts | 265° |
| 2026-05-06 13:27 | 22.74523 | 114.37464 | 36065 ft | 434 kts | 266° |
| 2026-05-06 13:28 | 22.73868 | 114.30964 | 36065 ft | 434 kts | 265° |
| 2026-05-06 13:28 | 22.73198 | 114.24461 | 36065 ft | 434 kts | 265° |
| 2026-05-06 13:29 | 22.72525 | 114.18004 | 36065 ft | 434 kts | 265° |
| 2026-05-06 13:29 | 22.71940 | 114.11494 | 36054 ft | 433 kts | 273° |
| 2026-05-06 13:29 | 22.72405 | 114.08301 | 36060 ft | 430 kts | 288° |
| 2026-05-06 13:30 | 22.73661 | 114.05376 | 36064 ft | 431 kts | 303° |
| 2026-05-06 13:30 | 22.77572 | 114.00434 | 36057 ft | 434 kts | 318° |
| 2026-05-06 13:30 | 22.80116 | 113.98671 | 36062 ft | 439 kts | 333° |
| 2026-05-06 13:31 | 22.83044 | 113.97697 | 36069 ft | 445 kts | 347° |
| 2026-05-06 13:31 | 22.88896 | 113.95878 | 36064 ft | 438 kts | 330° |
| 2026-05-06 13:32 | 22.94255 | 113.92755 | 36065 ft | 438 kts | 331° |
| 2026-05-06 13:32 | 22.99751 | 113.89904 | 36063 ft | 438 kts | 332° |
| 2026-05-06 13:33 | 23.05240 | 113.87042 | 36059 ft | 437 kts | 330° |
| 2026-05-06 13:33 | 23.10290 | 113.83532 | 36060 ft | 433 kts | 319° |
| 2026-05-06 13:34 | 23.14744 | 113.79164 | 36062 ft | 431 kts | 314° |
| 2026-05-06 13:34 | 23.19065 | 113.74651 | 36061 ft | 430 kts | 314° |
| 2026-05-06 13:35 | 23.23379 | 113.70134 | 36062 ft | 431 kts | 314° |
| 2026-05-06 13:35 | 23.27659 | 113.65648 | 36062 ft | 431 kts | 314° |
| 2026-05-06 13:36 | 23.31978 | 113.61132 | 36063 ft | 431 kts | 314° |
| 2026-05-06 13:36 | 23.36295 | 113.56616 | 36064 ft | 430 kts | 314° |
| 2026-05-06 13:37 | 23.40605 | 113.52089 | 36064 ft | 430 kts | 314° |
| 2026-05-06 13:37 | 23.44899 | 113.47569 | 36064 ft | 429 kts | 314° |
| 2026-05-06 13:38 | 23.49165 | 113.43073 | 36064 ft | 430 kts | 314° |
| 2026-05-06 13:38 | 23.53458 | 113.38546 | 36064 ft | 430 kts | 314° |
| 2026-05-06 13:39 | 23.57726 | 113.33971 | 36064 ft | 431 kts | 313° |
| 2026-05-06 13:39 | 23.61989 | 113.29386 | 36064 ft | 430 kts | 313° |
| 2026-05-06 13:40 | 23.65965 | 113.24592 | 36063 ft | 429 kts | 304° |
| 2026-05-06 13:40 | 23.68945 | 113.18993 | 36063 ft | 426 kts | 295° |
| 2026-05-06 13:41 | 23.71421 | 113.13119 | 36062 ft | 426 kts | 294° |
| 2026-05-06 13:41 | 23.73861 | 113.07200 | 36062 ft | 428 kts | 294° |
| 2026-05-06 13:42 | 23.76469 | 113.01425 | 36052 ft | 429 kts | 304° |
| 2026-05-06 13:42 | 23.78522 | 112.99058 | 36058 ft | 433 kts | 319° |
| 2026-05-06 13:42 | 23.81115 | 112.97354 | 36064 ft | 439 kts | 332° |
| 2026-05-06 13:43 | 23.86840 | 112.94960 | 36059 ft | 442 kts | 339° |
| 2026-05-06 13:43 | 23.92748 | 112.93041 | 36057 ft | 443 kts | 339° |
| 2026-05-06 13:44 | 23.98647 | 112.91082 | 36055 ft | 443 kts | 339° |
| 2026-05-06 13:44 | 24.04506 | 112.89131 | 36052 ft | 442 kts | 339° |
| 2026-05-06 13:45 | 24.10370 | 112.87175 | 36051 ft | 441 kts | 339° |
| 2026-05-06 13:45 | 24.19183 | 112.84242 | 36047 ft | 441 kts | 339° |
| 2026-05-06 13:46 | 24.25018 | 112.82306 | 36045 ft | 441 kts | 339° |
| 2026-05-06 13:46 | 24.30891 | 112.80351 | 36043 ft | 441 kts | 339° |
| 2026-05-06 13:47 | 24.36762 | 112.78394 | 36040 ft | 441 kts | 339° |
| 2026-05-06 13:47 | 24.42615 | 112.76374 | 36028 ft | 438 kts | 333° |
| 2026-05-06 13:48 | 24.45214 | 112.74710 | 36033 ft | 430 kts | 318° |
| 2026-05-06 13:48 | 24.47243 | 112.72394 | 36034 ft | 426 kts | 303° |
| 2026-05-06 13:48 | 24.48615 | 112.69540 | 36034 ft | 423 kts | 289° |
| 2026-05-06 13:48 | 24.49339 | 112.66413 | 36038 ft | 423 kts | 281° |
| 2026-05-06 13:49 | 24.50217 | 112.60028 | 36031 ft | 423 kts | 277° |
| 2026-05-06 13:49 | 24.50916 | 112.53610 | 36028 ft | 423 kts | 277° |
| 2026-05-06 13:50 | 24.51572 | 112.47215 | 36026 ft | 425 kts | 277° |
| 2026-05-06 13:50 | 24.52212 | 112.40769 | 36024 ft | 424 kts | 276° |
| 2026-05-06 13:51 | 24.52848 | 112.34327 | 36022 ft | 424 kts | 277° |
| 2026-05-06 13:51 | 24.53483 | 112.27886 | 36020 ft | 424 kts | 276° |
| 2026-05-06 13:52 | 24.54104 | 112.21485 | 36018 ft | 424 kts | 276° |
| 2026-05-06 13:52 | 24.54721 | 112.15039 | 36015 ft | 424 kts | 276° |
| 2026-05-06 13:53 | 24.55333 | 112.08589 | 36013 ft | 424 kts | 276° |
| 2026-05-06 13:53 | 24.55941 | 112.02142 | 36010 ft | 424 kts | 276° |
| 2026-05-06 13:54 | 24.56541 | 111.95735 | 36008 ft | 424 kts | 276° |
| 2026-05-06 13:54 | 24.57142 | 111.89291 | 36006 ft | 424 kts | 276° |
| 2026-05-06 13:55 | 24.57740 | 111.82840 | 36004 ft | 424 kts | 276° |
| 2026-05-06 13:55 | 24.58336 | 111.76388 | 36002 ft | 424 kts | 276° |
| 2026-05-06 13:56 | 24.58929 | 111.69937 | 36000 ft | 424 kts | 276° |
| 2026-05-06 13:56 | 24.59521 | 111.63535 | 35998 ft | 423 kts | 276° |
| 2026-05-06 13:57 | 24.60115 | 111.57100 | 35996 ft | 423 kts | 276° |
| 2026-05-06 13:57 | 24.60697 | 111.50665 | 35994 ft | 423 kts | 276° |
| 2026-05-06 13:58 | 24.61273 | 111.44222 | 35992 ft | 423 kts | 276° |
| 2026-05-06 13:58 | 24.61841 | 111.37827 | 35990 ft | 423 kts | 276° |
| 2026-05-06 13:59 | 24.62413 | 111.31389 | 35989 ft | 423 kts | 276° |
| 2026-05-06 13:59 | 24.62971 | 111.24961 | 35987 ft | 422 kts | 276° |
| 2026-05-06 14:00 | 24.63524 | 111.18536 | 35986 ft | 422 kts | 276° |
| 2026-05-06 14:00 | 24.64078 | 111.12107 | 35985 ft | 422 kts | 276° |
| 2026-05-06 14:01 | 24.64640 | 111.05726 | 35984 ft | 422 kts | 276° |
| 2026-05-06 14:01 | 24.65191 | 110.99293 | 35983 ft | 422 kts | 276° |
| 2026-05-06 14:02 | 24.65732 | 110.92867 | 35982 ft | 422 kts | 276° |
| 2026-05-06 14:02 | 24.66269 | 110.86436 | 35981 ft | 422 kts | 276° |
| 2026-05-06 14:03 | 24.67131 | 110.80110 | 35975 ft | 422 kts | 289° |
| 2026-05-06 14:03 | 24.68422 | 110.77209 | 35979 ft | 425 kts | 302° |
| 2026-05-06 14:03 | 24.70259 | 110.74649 | 35983 ft | 428 kts | 309° |
| 2026-05-06 14:04 | 24.74412 | 110.69950 | 35979 ft | 429 kts | 313° |
| 2026-05-06 14:04 | 24.78702 | 110.65394 | 35978 ft | 429 kts | 313° |
| 2026-05-06 14:05 | 24.82982 | 110.60879 | 35978 ft | 428 kts | 313° |
| 2026-05-06 14:05 | 24.87281 | 110.56338 | 35977 ft | 428 kts | 313° |
| 2026-05-06 14:06 | 24.91576 | 110.51795 | 35977 ft | 428 kts | 313° |
| 2026-05-06 14:06 | 24.95873 | 110.47245 | 35976 ft | 428 kts | 313° |
| 2026-05-06 14:07 | 25.00157 | 110.42709 | 35976 ft | 427 kts | 313° |
| 2026-05-06 14:07 | 25.04426 | 110.38209 | 35976 ft | 427 kts | 313° |
| 2026-05-06 14:08 | 25.08719 | 110.33677 | 35976 ft | 427 kts | 313° |
| 2026-05-06 14:08 | 25.12998 | 110.29147 | 35976 ft | 427 kts | 313° |
| 2026-05-06 14:09 | 25.17282 | 110.24607 | 35976 ft | 427 kts | 313° |
| 2026-05-06 14:09 | 25.21534 | 110.20110 | 35976 ft | 426 kts | 313° |
| 2026-05-06 14:10 | 25.25837 | 110.15609 | 35976 ft | 426 kts | 313° |
| 2026-05-06 14:10 | 25.30132 | 110.11107 | 35976 ft | 425 kts | 313° |
| 2026-05-06 14:11 | 25.34420 | 110.06605 | 35976 ft | 426 kts | 313° |
| 2026-05-06 14:11 | 25.38713 | 110.02092 | 35976 ft | 425 kts | 313° |
| 2026-05-06 14:12 | 25.42964 | 109.97620 | 35976 ft | 425 kts | 313° |
| 2026-05-06 14:12 | 25.47253 | 109.93114 | 35976 ft | 425 kts | 313° |
| 2026-05-06 14:13 | 25.51547 | 109.88603 | 35976 ft | 425 kts | 313° |
| 2026-05-06 14:13 | 25.55835 | 109.84098 | 35976 ft | 425 kts | 313° |
| 2026-05-06 14:14 | 25.60113 | 109.79594 | 35976 ft | 424 kts | 313° |
| 2026-05-06 14:14 | 25.64358 | 109.75108 | 35976 ft | 424 kts | 313° |
| 2026-05-06 14:15 | 25.68626 | 109.70590 | 35977 ft | 424 kts | 313° |
| 2026-05-06 14:15 | 25.72886 | 109.66073 | 35986 ft | 424 kts | 313° |
| 2026-05-06 14:16 | 25.76735 | 109.61180 | 35998 ft | 418 kts | 298° |
| 2026-05-06 14:16 | 25.79018 | 109.55342 | 36006 ft | 416 kts | 288° |
| 2026-05-06 14:17 | 25.80731 | 109.49216 | 36007 ft | 415 kts | 285° |
| 2026-05-06 14:17 | 25.82371 | 109.43064 | 36007 ft | 416 kts | 285° |
| 2026-05-06 14:18 | 25.84007 | 109.36917 | 36007 ft | 417 kts | 285° |
| 2026-05-06 14:18 | 25.85638 | 109.30772 | 36008 ft | 416 kts | 285° |
| 2026-05-06 14:19 | 25.87255 | 109.24610 | 36008 ft | 417 kts | 285° |
| 2026-05-06 14:19 | 25.88871 | 109.18415 | 36009 ft | 418 kts | 285° |
| 2026-05-06 14:20 | 25.90484 | 109.12213 | 36010 ft | 417 kts | 285° |
| 2026-05-06 14:20 | 25.92083 | 109.06059 | 36011 ft | 418 kts | 285° |
| 2026-05-06 14:21 | 25.93729 | 108.99871 | 36012 ft | 418 kts | 285° |
| 2026-05-06 14:21 | 25.95378 | 108.93691 | 36013 ft | 418 kts | 285° |
| 2026-05-06 14:22 | 25.97024 | 108.87477 | 36015 ft | 419 kts | 285° |
| 2026-05-06 14:22 | 25.98653 | 108.81306 | 36016 ft | 419 kts | 285° |
| 2026-05-06 14:23 | 26.00291 | 108.75100 | 36017 ft | 419 kts | 285° |
| 2026-05-06 14:23 | 26.01943 | 108.68906 | 36018 ft | 417 kts | 285° |
| 2026-05-06 14:24 | 26.03592 | 108.62726 | 36020 ft | 418 kts | 285° |
| 2026-05-06 14:24 | 26.05226 | 108.56561 | 36022 ft | 418 kts | 285° |
| 2026-05-06 14:25 | 26.06862 | 108.50364 | 36024 ft | 418 kts | 285° |
| 2026-05-06 14:25 | 26.08489 | 108.44193 | 35633 ft | 418 kts | 285° |
| 2026-05-06 14:26 | 26.09303 | 108.41052 | 34957 ft | 417 kts | 283° |
| 2026-05-06 14:26 | 26.09882 | 108.37896 | 34245 ft | 417 kts | 278° |
| 2026-05-06 14:26 | 26.10293 | 108.34695 | 33523 ft | 417 kts | 277° |
| 2026-05-06 14:26 | 26.10661 | 108.31493 | 32796 ft | 418 kts | 277° |
| 2026-05-06 14:27 | 26.11031 | 108.28284 | 32065 ft | 419 kts | 276° |
| 2026-05-06 14:27 | 26.11396 | 108.25127 | 31519 ft | 415 kts | 276° |
| 2026-05-06 14:27 | 26.11764 | 108.21949 | 30981 ft | 412 kts | 276° |
| 2026-05-06 14:27 | 26.12129 | 108.18807 | 30451 ft | 408 kts | 276° |
| 2026-05-06 14:28 | 26.12505 | 108.15693 | 29930 ft | 404 kts | 276° |
| 2026-05-06 14:28 | 26.12875 | 108.12600 | 29422 ft | 401 kts | 276° |
| 2026-05-06 14:28 | 26.13236 | 108.09539 | 28923 ft | 397 kts | 276° |
| 2026-05-06 14:28 | 26.13590 | 108.06505 | 28428 ft | 394 kts | 276° |
| 2026-05-06 14:29 | 26.13940 | 108.03492 | 27935 ft | 391 kts | 276° |
| 2026-05-06 14:29 | 26.14281 | 108.00541 | 27450 ft | 388 kts | 276° |
| 2026-05-06 14:29 | 26.14623 | 107.97568 | 26961 ft | 386 kts | 276° |
| 2026-05-06 14:29 | 26.14962 | 107.94618 | 26476 ft | 384 kts | 275° |
| 2026-05-06 14:30 | 26.15299 | 107.91678 | 25991 ft | 382 kts | 275° |
| 2026-05-06 14:30 | 26.15634 | 107.88761 | 25508 ft | 380 kts | 275° |
| 2026-05-06 14:30 | 26.15967 | 107.85855 | 25027 ft | 378 kts | 275° |
| 2026-05-06 14:30 | 26.16299 | 107.82960 | 24546 ft | 376 kts | 275° |
| 2026-05-06 14:31 | 26.16637 | 107.80073 | 24068 ft | 375 kts | 275° |
| 2026-05-06 14:31 | 26.16970 | 107.77207 | 23592 ft | 374 kts | 275° |
| 2026-05-06 14:31 | 26.17300 | 107.74335 | 23115 ft | 372 kts | 275° |
| 2026-05-06 14:31 | 26.17622 | 107.71526 | 22649 ft | 371 kts | 275° |
| 2026-05-06 14:32 | 26.17946 | 107.68677 | 22176 ft | 369 kts | 275° |
| 2026-05-06 14:32 | 26.18268 | 107.65847 | 21705 ft | 368 kts | 275° |
| 2026-05-06 14:32 | 26.18587 | 107.63028 | 21234 ft | 367 kts | 275° |
| 2026-05-06 14:32 | 26.18906 | 107.60213 | 20764 ft | 366 kts | 276° |
| 2026-05-06 14:33 | 26.19222 | 107.57421 | 20300 ft | 365 kts | 276° |
| 2026-05-06 14:33 | 26.19540 | 107.54610 | 19833 ft | 364 kts | 276° |
| 2026-05-06 14:33 | 26.19858 | 107.51819 | 19368 ft | 363 kts | 276° |
| 2026-05-06 14:33 | 26.20175 | 107.49065 | 18909 ft | 362 kts | 276° |
| 2026-05-06 14:34 | 26.20490 | 107.46294 | 18447 ft | 361 kts | 276° |
| 2026-05-06 14:34 | 26.20803 | 107.43522 | 17986 ft | 360 kts | 276° |
| 2026-05-06 14:34 | 26.21112 | 107.40758 | 17528 ft | 359 kts | 276° |
| 2026-05-06 14:34 | 26.21418 | 107.38002 | 17071 ft | 358 kts | 276° |
| 2026-05-06 14:35 | 26.21724 | 107.35244 | 16614 ft | 358 kts | 276° |
| 2026-05-06 14:35 | 26.22027 | 107.32499 | 16161 ft | 357 kts | 276° |
| 2026-05-06 14:35 | 26.22228 | 107.30682 | 15860 ft | 357 kts | 276° |
| 2026-05-06 14:35 | 26.22626 | 107.27057 | 15261 ft | 355 kts | 276° |
| 2026-05-06 14:36 | 26.22923 | 107.24357 | 14812 ft | 347 kts | 276° |
| 2026-05-06 14:36 | 26.23214 | 107.21720 | 14371 ft | 340 kts | 276° |
| 2026-05-06 14:36 | 26.23500 | 107.19125 | 13971 ft | 333 kts | 276° |
| 2026-05-06 14:36 | 26.23787 | 107.16625 | 13782 ft | 319 kts | 277° |
| 2026-05-06 14:37 | 26.24064 | 107.14234 | 13608 ft | 304 kts | 276° |
| 2026-05-06 14:37 | 26.24310 | 107.11952 | 13444 ft | 290 kts | 275° |
| 2026-05-06 14:37 | 26.24544 | 107.09768 | 13290 ft | 278 kts | 276° |
| 2026-05-06 14:37 | 26.24769 | 107.07677 | 13141 ft | 266 kts | 275° |
| 2026-05-06 14:38 | 26.24914 | 107.06341 | 13047 ft | 259 kts | 275° |
| 2026-05-06 14:38 | 26.25192 | 107.03777 | 12865 ft | 245 kts | 275° |
| 2026-05-06 14:38 | 26.25391 | 107.01922 | 12735 ft | 238 kts | 275° |
| 2026-05-06 14:38 | 26.25588 | 107.00100 | 12618 ft | 236 kts | 275° |
| 2026-05-06 14:39 | 26.25783 | 106.98288 | 12495 ft | 236 kts | 275° |
| 2026-05-06 14:39 | 26.25978 | 106.96471 | 12370 ft | 236 kts | 275° |
| 2026-05-06 14:39 | 26.26173 | 106.94663 | 12244 ft | 235 kts | 275° |
| 2026-05-06 14:39 | 26.26302 | 106.93467 | 12162 ft | 234 kts | 275° |
| 2026-05-06 14:40 | 26.26496 | 106.91670 | 12038 ft | 234 kts | 275° |
| 2026-05-06 14:40 | 26.26156 | 106.89360 | 11856 ft | 232 kts | 240° |
| 2026-05-06 14:40 | 26.24943 | 106.88160 | 11616 ft | 244 kts | 207° |
| 2026-05-06 14:40 | 26.23263 | 106.87761 | 11405 ft | 252 kts | 189° |
| 2026-05-06 14:41 | 26.22105 | 106.87672 | 11247 ft | 252 kts | 189° |
| 2026-05-06 14:41 | 26.20378 | 106.87417 | 10995 ft | 249 kts | 197° |
| 2026-05-06 14:41 | 26.18952 | 106.86475 | 10755 ft | 237 kts | 230° |
| 2026-05-06 14:41 | 26.18282 | 106.84822 | 10395 ft | 239 kts | 261° |
| 2026-05-06 14:42 | 26.18378 | 106.82966 | 10079 ft | 241 kts | 276° |
| 2026-05-06 14:42 | 26.18848 | 106.80561 | 9724 ft | 237 kts | 277° |
| 2026-05-06 14:42 | 26.19075 | 106.79356 | 9553 ft | 235 kts | 277° |
| 2026-05-06 14:42 | 26.19499 | 106.77016 | 9235 ft | 233 kts | 278° |
| 2026-05-06 14:43 | 26.20309 | 106.75410 | 8913 ft | 249 kts | 313° |
| 2026-05-06 14:43 | 26.21295 | 106.74757 | 8792 ft | 252 kts | 340° |
| 2026-05-06 14:43 | 26.23037 | 106.74571 | 8432 ft | 256 kts | 4° |
| 2026-05-06 14:43 | 26.24812 | 106.74695 | 8122 ft | 253 kts | 4° |
| 2026-05-06 14:44 | 26.26524 | 106.74899 | 7867 ft | 241 kts | 8° |
| 2026-05-06 14:44 | 26.28148 | 106.75176 | 7655 ft | 232 kts | 10° |
| 2026-05-06 14:44 | 26.29719 | 106.75465 | 7414 ft | 224 kts | 10° |
| 2026-05-06 14:45 | 26.32661 | 106.76024 | 7174 ft | 211 kts | 11° |
| 2026-05-06 14:45 | 26.34112 | 106.76303 | 7043 ft | 213 kts | 11° |
| 2026-05-06 14:45 | 26.35608 | 106.76590 | 6942 ft | 222 kts | 10° |
| 2026-05-06 14:45 | 26.37128 | 106.76884 | 6755 ft | 223 kts | 11° |
| 2026-05-06 14:46 | 26.38672 | 106.77186 | 6483 ft | 227 kts | 11° |
| 2026-05-06 14:46 | 26.40235 | 106.77487 | 6142 ft | 228 kts | 11° |
| 2026-05-06 14:46 | 26.41769 | 106.77785 | 5849 ft | 219 kts | 11° |
| 2026-05-06 14:46 | 26.43243 | 106.78070 | 5576 ft | 210 kts | 11° |
| 2026-05-06 14:47 | 26.44623 | 106.78337 | 5318 ft | 197 kts | 11° |
| 2026-05-06 14:47 | 26.45934 | 106.78591 | 5039 ft | 185 kts | 12° |
| 2026-05-06 14:47 | 26.47168 | 106.78832 | 4811 ft | 177 kts | 12° |
| 2026-05-06 14:47 | 26.48371 | 106.79065 | 4541 ft | 173 kts | 11° |
| 2026-05-06 14:48 | 26.49537 | 106.79262 | 4290 ft | 166 kts | 10° |
| 2026-05-06 14:48 | 26.50619 | 106.79491 | 4202 ft | 154 kts | 11° |
| 2026-05-06 14:48 | 26.51664 | 106.79700 | 3978 ft | 152 kts | 10° |
| 2026-05-06 14:48 | 26.52705 | 106.79906 | 3753 ft | 149 kts | 9° |
| 2026-05-06 14:49 | 26.53690 | 106.80110 | 3901 ft | 152 kts | 12° |
| 2026-05-06 14:49 | 26.54723 | 106.80347 | 4604 ft | 149 kts | 11° |
| 2026-05-06 14:49 | 26.55667 | 106.80860 | 5130 ft | 159 kts | 45° |
| 2026-05-06 14:49 | 26.56075 | 106.82032 | 5635 ft | 172 kts | 89° |
| 2026-05-06 14:50 | 26.55658 | 106.83318 | 6095 ft | 188 kts | 126° |
| 2026-05-06 14:50 | 26.54533 | 106.84113 | 6454 ft | 201 kts | 160° |
| 2026-05-06 14:50 | 26.53133 | 106.84309 | 6948 ft | 206 kts | 173° |
| 2026-05-06 14:50 | 26.51679 | 106.84415 | 7362 ft | 215 kts | 174° |
| 2026-05-06 14:51 | 26.50114 | 106.84561 | 7658 ft | 237 kts | 174° |
| 2026-05-06 14:51 | 26.48406 | 106.84780 | 7836 ft | 259 kts | 173° |
| 2026-05-06 14:51 | 26.46570 | 106.85041 | 7924 ft | 281 kts | 173° |
| 2026-05-06 14:51 | 26.44634 | 106.85309 | 7863 ft | 274 kts | 173° |
| 2026-05-06 14:52 | 26.42790 | 106.85565 | 7889 ft | 259 kts | 174° |
| 2026-05-06 14:52 | 26.41036 | 106.85812 | 7793 ft | 251 kts | 173° |
| 2026-05-06 14:52 | 26.39333 | 106.86045 | 7647 ft | 241 kts | 173° |
| 2026-05-06 14:52 | 26.37701 | 106.86278 | 7432 ft | 232 kts | 174° |
| 2026-05-06 14:53 | 26.36118 | 106.86490 | 7103 ft | 227 kts | 173° |
| 2026-05-06 14:53 | 26.34586 | 106.86698 | 7016 ft | 216 kts | 174° |
| 2026-05-06 14:53 | 26.33126 | 106.86817 | 6947 ft | 212 kts | 181° |
| 2026-05-06 14:53 | 26.31677 | 106.86668 | 6886 ft | 207 kts | 187° |
| 2026-05-06 14:54 | 26.30278 | 106.86473 | 6932 ft | 197 kts | 186° |
| 2026-05-06 14:54 | 26.28945 | 106.86275 | 6912 ft | 190 kts | 186° |
| 2026-05-06 14:54 | 26.27682 | 106.86022 | 6849 ft | 182 kts | 199° |
| 2026-05-06 14:54 | 26.26767 | 106.85087 | 6741 ft | 184 kts | 241° |
| 2026-05-06 14:55 | 26.26586 | 106.83626 | 6878 ft | 203 kts | 271° |
| 2026-05-06 14:55 | 26.26810 | 106.82032 | 6989 ft | 212 kts | 276° |
| 2026-05-06 14:55 | 26.27079 | 106.80383 | 7002 ft | 219 kts | 277° |
| 2026-05-06 14:55 | 26.27332 | 106.78730 | 6936 ft | 219 kts | 277° |
| 2026-05-06 14:56 | 26.27810 | 106.77152 | 6864 ft | 217 kts | 301° |
| 2026-05-06 14:56 | 26.28954 | 106.76119 | 6811 ft | 211 kts | 337° |
| 2026-05-06 14:56 | 26.30367 | 106.75762 | 6930 ft | 213 kts | 351° |
| 2026-05-06 14:56 | 26.31869 | 106.75707 | 6901 ft | 219 kts | 9° |
| 2026-05-06 14:57 | 26.33395 | 106.76066 | 6932 ft | 230 kts | 14° |
| 2026-05-06 14:57 | 26.34951 | 106.76424 | 6899 ft | 224 kts | 12° |
| 2026-05-06 14:57 | 26.36440 | 106.76735 | 6846 ft | 215 kts | 12° |
| 2026-05-06 14:57 | 26.37921 | 106.77033 | 6593 ft | 216 kts | 11° |
| 2026-05-06 14:58 | 26.39369 | 106.77317 | 6339 ft | 211 kts | 11° |
| 2026-05-06 14:58 | 26.40776 | 106.77593 | 6048 ft | 201 kts | 11° |
| 2026-05-06 14:58 | 26.42136 | 106.77856 | 5776 ft | 194 kts | 12° |
| 2026-05-06 14:58 | 26.43425 | 106.78105 | 5561 ft | 186 kts | 11° |
| 2026-05-06 14:59 | 26.44678 | 106.78348 | 5286 ft | 179 kts | 12° |
| 2026-05-06 14:59 | 26.45878 | 106.78580 | 5048 ft | 172 kts | 12° |
| 2026-05-06 14:59 | 26.47044 | 106.78808 | 4837 ft | 170 kts | 12° |
| 2026-05-06 14:59 | 26.48223 | 106.79037 | 4629 ft | 174 kts | 11° |
| 2026-05-06 15:00 | 26.49408 | 106.79269 | 4420 ft | 171 kts | 11° |
| 2026-05-06 15:00 | 26.50558 | 106.79496 | 4182 ft | 166 kts | 10° |
| 2026-05-06 15:00 | 26.51681 | 106.79700 | 3916 ft | 163 kts | 10° |
| 2026-05-06 15:00 | 26.52787 | 106.79924 | 3746 ft | 157 kts | 9° |
| 2026-05-06 15:01 | 26.53750 | 106.80109 | 3745 ft | 110 kts | 10° |
| 2026-05-06 15:01 | 26.54261 | 106.80209 | 3745 ft | 50 kts | 10° |
| 2026-05-06 15:01 | 26.54491 | 106.80254 | 3745 ft | 27 kts | 10° |
| 2026-05-06 15:01 | 26.54657 | 106.80265 | 3745 ft | 21 kts | 341° |
| 2026-05-06 15:02 | 26.54781 | 106.80215 | 3745 ft | 16 kts | 326° |
| 2026-05-06 15:02 | 26.54781 | 106.80132 | 3745 ft | 10 kts | 255° |
| 2026-05-06 15:02 | 26.54783 | 106.80068 | 3745 ft | 8 kts | 266° |
| 2026-05-06 15:02 | 26.54733 | 106.80032 | 3745 ft | 11 kts | 190° |
| 2026-05-06 15:03 | 26.54651 | 106.80015 | 3745 ft | 13 kts | 190° |
| 2026-05-06 15:03 | 26.54625 | 106.80010 | 3745 ft | 0 kts | 190° |
| 2026-05-06 15:03 | 26.54615 | 106.80008 | 3745 ft | 3 kts | 190° |
| 2026-05-06 15:04 | 26.54589 | 106.80003 | 3745 ft | 5 kts | 190° |
| 2026-05-06 15:04 | 26.54549 | 106.79995 | 3745 ft | 7 kts | 192° |
| 2026-05-06 15:04 | 26.54517 | 106.79962 | 3745 ft | 7 kts | 244° |
| 2026-05-06 15:04 | 26.54510 | 106.79909 | 3745 ft | 7 kts | 277° |
| 2026-05-06 15:05 | 26.54519 | 106.79849 | 3745 ft | 8 kts | 279° |
| 2026-05-06 15:05 | 26.54503 | 106.79801 | 3745 ft | 7 kts | 198° |
| 2026-05-06 15:05 | 26.54468 | 106.79792 | 3745 ft | 1 kts | 190° |